createdAt,value
2024-04-13T00:02:17.081Z,95479.00
2024-04-13T00:04:44.077Z,95467.88
2024-04-13T00:07:11.054Z,95470.56
2024-04-13T00:09:38.266Z,95473.25
2024-04-13T00:12:05.728Z,95479.22
2024-04-13T00:14:34.837Z,95473.25
2024-04-13T00:17:03.241Z,95462.81
2024-04-13T00:19:30.313Z,95472.56
2024-04-13T00:22:01.832Z,95462.28
2024-04-13T00:24:29.482Z,95471.53
2024-04-13T00:26:56.424Z,95479.09
2024-04-13T00:29:24.137Z,95475.63
2024-04-13T00:31:51.156Z,95479.72
2024-04-13T00:34:18.070Z,95479.31
2024-04-13T00:36:44.903Z,95470.63
2024-04-13T00:39:13.022Z,95472.72
2024-04-13T00:41:41.005Z,95464.78
2024-04-13T00:44:08.329Z,95469.19
2024-04-13T00:46:35.657Z,95471.88
2024-04-13T00:49:12.574Z,95460.13
2024-04-13T00:51:42.875Z,95453.88
2024-04-13T00:54:10.669Z,95462.16
2024-04-13T00:56:41.613Z,95449.25
2024-04-13T00:59:10.046Z,95458.59
2024-04-13T01:01:38.118Z,95448.75
2024-04-13T01:04:06.306Z,95447.25
2024-04-13T01:06:33.839Z,95449.25
2024-04-13T01:09:04.849Z,95441.66
2024-04-13T01:11:32.289Z,95436.72
2024-04-13T01:13:59.222Z,95440.50
2024-04-13T01:16:30.440Z,95438.72
2024-04-13T01:18:58.098Z,95442.78
2024-04-13T01:21:25.329Z,95447.06
2024-04-13T01:24:02.555Z,95442.09
2024-04-13T01:26:30.011Z,95450.72
2024-04-13T01:28:56.892Z,95443.28
2024-04-13T01:31:25.059Z,95450.63
2024-04-13T01:33:52.056Z,95434.34
2024-04-13T01:36:19.528Z,95441.78
2024-04-13T01:38:46.477Z,95443.59
2024-04-13T01:41:13.329Z,95432.34
2024-04-13T01:43:40.119Z,95438.31
2024-04-13T01:46:07.205Z,95436.94
2024-04-13T01:48:34.624Z,95431.38
2024-04-13T01:51:02.276Z,95433.25
2024-04-13T01:53:29.158Z,95444.19
2024-04-13T01:55:56.143Z,95434.84
2024-04-13T01:58:23.268Z,95442.59
2024-04-13T02:00:50.293Z,95442.69
2024-04-13T02:03:17.435Z,95428.88
2024-04-13T02:05:44.748Z,95442.47
2024-04-13T02:08:11.917Z,95441.03
2024-04-13T02:10:38.920Z,95432.56
2024-04-13T02:13:07.832Z,95434.75
2024-04-13T02:15:34.957Z,95437.94
2024-04-13T02:18:02.370Z,95436.34
2024-04-13T02:20:29.716Z,95433.16
2024-04-13T02:22:56.823Z,95441.81
2024-04-13T02:25:23.692Z,95440.50
2024-04-13T02:27:50.594Z,95435.44
2024-04-13T02:30:17.466Z,95448.03
2024-04-13T02:32:44.465Z,95444.47
2024-04-13T02:35:11.433Z,95443.47
2024-04-13T02:37:38.262Z,95436.31
2024-04-13T02:40:09.435Z,95438.78
2024-04-13T02:42:38.358Z,95456.47
2024-04-13T02:45:06.846Z,95443.06
2024-04-13T02:47:33.819Z,95448.44
2024-04-13T02:50:00.759Z,95443.34
2024-04-13T02:52:29.783Z,95446.66
2024-04-13T02:54:56.709Z,95455.66
2024-04-13T02:57:25.494Z,95446.44
2024-04-13T02:59:52.877Z,95446.16
2024-04-13T03:02:21.190Z,95446.16
2024-04-13T03:04:51.968Z,95446.16
2024-04-13T03:07:19.568Z,95450.00
2024-04-13T03:09:50.218Z,95452.69
2024-04-13T03:12:17.223Z,95437.69
2024-04-13T03:14:44.864Z,95437.19
2024-04-13T03:17:12.166Z,95432.72
2024-04-13T03:19:40.268Z,95427.88
2024-04-13T03:22:07.101Z,95434.91
2024-04-13T03:24:36.966Z,95428.16
2024-04-13T03:27:04.348Z,95432.34
2024-04-13T03:29:31.400Z,95432.13
2024-04-13T03:31:58.407Z,95426.78
2024-04-13T03:34:27.736Z,95425.09
2024-04-13T03:36:55.557Z,95428.00
2024-04-13T03:39:23.239Z,95427.31
2024-04-13T03:41:50.220Z,95431.28
2024-04-13T03:44:17.381Z,95436.72
2024-04-13T03:46:44.207Z,95433.56
2024-04-13T03:49:11.246Z,95428.78
2024-04-13T03:51:38.242Z,95439.50
2024-04-13T03:54:05.221Z,95435.94
2024-04-13T03:56:33.768Z,95438.31
2024-04-13T03:59:00.679Z,95444.69
2024-04-13T04:01:27.676Z,95440.72
2024-04-13T04:03:55.198Z,95443.19
2024-04-13T04:06:22.666Z,95444.94
2024-04-13T04:08:49.545Z,95448.34
2024-04-13T04:11:16.402Z,95448.50
2024-04-13T04:13:43.292Z,95454.34
2024-04-13T04:16:10.229Z,95449.34
2024-04-13T04:18:37.279Z,95448.53
2024-04-13T04:21:04.479Z,95443.41
2024-04-13T04:23:31.406Z,95437.84
2024-04-13T04:25:58.304Z,95430.81
2024-04-13T04:28:25.192Z,95426.53
2024-04-13T04:30:52.051Z,95429.50
2024-04-13T04:33:19.055Z,95439.34
2024-04-13T04:35:46.041Z,95443.09
2024-04-13T04:38:14.043Z,95441.34
2024-04-13T04:40:41.167Z,95435.47
2024-04-13T04:43:08.041Z,95439.81
2024-04-13T04:45:36.078Z,95439.09
2024-04-13T04:48:03.208Z,95441.97
2024-04-13T04:50:30.126Z,95435.63
2024-04-13T04:52:57.001Z,95444.09
2024-04-13T04:55:23.826Z,95439.00
2024-04-13T04:57:50.789Z,95437.94
2024-04-13T05:00:17.712Z,95435.53
2024-04-13T05:02:44.697Z,95436.56
2024-04-13T05:05:11.515Z,95439.13
2024-04-13T05:07:39.516Z,95438.47
2024-04-13T05:10:10.001Z,95439.78
2024-04-13T05:12:37.263Z,95446.34
2024-04-13T05:15:04.578Z,95430.88
2024-04-13T05:17:31.547Z,95436.63
2024-04-13T05:19:58.528Z,95435.81
2024-04-13T05:22:25.350Z,95447.53
2024-04-13T05:24:52.245Z,95432.66
2024-04-13T05:27:20.311Z,95439.13
2024-04-13T05:29:53.685Z,95439.13
2024-04-13T05:32:20.740Z,95435.47
2024-04-13T05:34:47.611Z,95443.28
2024-04-13T05:37:14.453Z,95449.25
2024-04-13T05:39:41.420Z,95448.75
2024-04-13T05:42:08.308Z,95450.25
2024-04-13T05:44:35.259Z,95458.19
2024-04-13T05:47:02.068Z,95458.69
2024-04-13T05:49:28.945Z,95469.72
2024-04-13T05:51:55.826Z,95458.00
2024-04-13T05:56:49.758Z,95472.09
2024-04-13T05:59:16.616Z,95472.78
2024-04-13T06:01:43.571Z,95467.81
2024-04-13T06:04:10.520Z,95474.06
2024-04-13T06:06:37.564Z,95465.69
2024-04-13T06:09:06.948Z,95476.69
2024-04-13T06:11:33.787Z,95474.56
2024-04-13T06:14:00.862Z,95476.34
2024-04-13T06:16:27.722Z,95480.59
2024-04-13T06:18:54.664Z,95469.88
2024-04-13T06:21:21.595Z,95467.72
2024-04-13T06:23:48.451Z,95465.25
2024-04-13T06:26:15.296Z,95470.13
2024-04-13T06:28:42.150Z,95470.53
2024-04-13T06:31:08.997Z,95459.97
2024-04-13T06:33:36.012Z,95469.66
2024-04-13T06:36:03.110Z,95469.50
2024-04-13T06:38:31.338Z,95473.06
2024-04-13T06:40:58.587Z,95477.44
2024-04-13T06:43:28.516Z,95474.19
2024-04-13T06:45:55.453Z,95471.81
2024-04-13T06:48:22.302Z,95468.69
2024-04-13T06:50:49.220Z,95464.69
2024-04-13T06:53:17.179Z,95462.13
2024-04-13T06:55:44.058Z,95463.28
2024-04-13T06:58:11.268Z,95460.50
2024-04-13T07:00:38.305Z,95446.78
2024-04-13T07:03:05.908Z,95448.38
2024-04-13T07:05:32.955Z,95449.94
2024-04-13T07:07:59.804Z,95439.16
2024-04-13T07:10:26.851Z,95456.03
2024-04-13T07:12:53.700Z,95446.09
2024-04-13T07:15:20.618Z,95455.03
2024-04-13T07:17:50.896Z,95452.34
2024-04-13T07:20:18.187Z,95452.78
2024-04-13T07:22:45.012Z,95450.94
2024-04-13T07:25:11.855Z,95458.00
2024-04-13T07:27:38.766Z,95466.78
2024-04-13T07:30:07.107Z,95457.66
2024-04-13T07:32:34.132Z,95456.00
2024-04-13T07:35:01.028Z,95454.50
2024-04-13T07:37:27.896Z,95453.50
2024-04-13T07:39:54.743Z,95461.72
2024-04-13T07:42:21.691Z,95451.25
2024-04-13T07:44:48.563Z,95455.81
2024-04-13T07:47:15.538Z,95467.66
2024-04-13T07:49:42.536Z,95461.81
2024-04-13T07:52:09.485Z,95457.47
2024-04-13T07:54:36.989Z,95450.13
2024-04-13T07:57:04.184Z,95463.22
2024-04-13T07:59:31.058Z,95461.81
2024-04-13T08:01:57.849Z,95460.22
2024-04-13T08:04:24.838Z,95461.06
2024-04-13T08:06:52.422Z,95459.06
2024-04-13T08:09:19.380Z,95453.47
2024-04-13T08:11:46.297Z,95451.09
2024-04-13T08:14:15.440Z,95452.97
2024-04-13T08:16:43.547Z,95437.31
2024-04-13T08:19:10.433Z,95452.09
2024-04-13T08:21:37.302Z,95449.91
2024-04-13T08:24:04.710Z,95436.91
2024-04-13T08:26:31.582Z,95447.56
2024-04-13T08:28:58.698Z,95432.81
2024-04-13T08:31:25.665Z,95435.31
2024-04-13T08:33:52.739Z,95441.38
2024-04-13T08:36:19.685Z,95434.97
2024-04-13T08:38:46.866Z,95428.41
2024-04-13T08:41:24.755Z,95438.34
2024-04-13T08:43:52.069Z,95425.38
2024-04-13T08:46:21.320Z,95431.56
2024-04-13T08:48:48.693Z,95435.72
2024-04-13T08:51:15.840Z,95432.41
2024-04-13T08:53:44.065Z,95417.53
2024-04-13T08:56:12.615Z,95424.44
2024-04-13T08:58:40.481Z,95418.56
2024-04-13T09:01:13.904Z,95417.16
2024-04-13T09:03:41.146Z,95416.41
2024-04-13T09:06:10.299Z,95403.56
2024-04-13T09:08:39.054Z,95410.81
2024-04-13T09:11:10.111Z,95421.66
2024-04-13T09:13:41.781Z,95418.13
2024-04-13T09:16:10.245Z,95415.78
2024-04-13T09:18:37.609Z,95421.56
2024-04-13T09:21:04.797Z,95416.97
2024-04-13T09:23:32.239Z,95417.16
2024-04-13T09:26:08.616Z,95412.66
2024-04-13T09:28:43.051Z,95403.00
2024-04-13T09:31:11.646Z,95406.84
2024-04-13T09:33:40.444Z,95411.22
2024-04-13T09:36:09.070Z,95407.88
2024-04-13T09:38:37.094Z,95396.03
2024-04-13T09:41:04.285Z,95405.47
2024-04-13T09:43:31.871Z,95386.81
2024-04-13T09:46:05.650Z,95403.22
2024-04-13T09:48:33.008Z,95385.53
2024-04-13T09:51:00.278Z,95389.69
2024-04-13T09:53:28.005Z,95389.16
2024-04-13T09:55:54.851Z,95378.91
2024-04-13T09:58:23.856Z,95364.34
2024-04-13T10:00:51.682Z,95363.81
2024-04-13T10:03:18.847Z,95374.16
2024-04-13T10:05:46.518Z,95368.78
2024-04-13T10:08:14.472Z,95357.84
2024-04-13T10:10:51.465Z,95355.09
2024-04-13T10:13:29.592Z,95339.72
2024-04-13T10:16:00.026Z,95347.22
2024-04-13T10:18:27.447Z,95353.78
2024-04-13T10:20:58.145Z,95355.44
2024-04-13T10:23:25.279Z,95350.94
2024-04-13T10:25:59.195Z,95347.72
2024-04-13T10:28:26.216Z,95351.03
2024-04-13T10:30:58.370Z,95348.06
2024-04-13T10:33:27.707Z,95327.06
2024-04-13T10:36:04.948Z,95346.50
2024-04-13T10:38:34.889Z,95343.06
2024-04-13T10:41:05.625Z,95331.34
2024-04-13T10:43:33.300Z,95326.66
2024-04-13T10:46:03.143Z,95325.47
2024-04-13T10:48:32.797Z,95318.38
2024-04-13T10:51:01.363Z,95304.59
2024-04-13T10:53:30.119Z,95305.88
2024-04-13T10:55:59.578Z,95309.41
2024-04-13T10:58:33.944Z,95314.50
2024-04-13T11:01:01.682Z,95308.94
2024-04-13T11:03:29.354Z,95314.38
2024-04-13T11:05:57.454Z,95310.06
2024-04-13T11:08:25.163Z,95305.44
2024-04-13T11:11:00.377Z,95300.38
2024-04-13T11:13:28.502Z,95284.72
2024-04-13T11:15:55.754Z,95296.47
2024-04-13T11:18:23.604Z,95283.16
2024-04-13T11:20:56.296Z,95293.72
2024-04-13T11:23:23.777Z,95294.91
2024-04-13T11:25:50.972Z,95302.34
2024-04-13T11:28:17.980Z,95296.09
2024-04-13T11:30:44.954Z,95291.72
2024-04-13T11:33:15.770Z,95287.78
2024-04-13T11:35:53.161Z,95287.28
2024-04-13T11:38:19.977Z,95291.25
2024-04-13T11:40:51.080Z,95291.34
2024-04-13T11:43:18.826Z,95282.38
2024-04-13T11:45:46.348Z,95273.75
2024-04-13T11:48:13.526Z,95267.06
2024-04-13T11:50:40.576Z,95269.78
2024-04-13T11:53:08.037Z,95259.97
2024-04-13T11:55:38.693Z,95268.66
2024-04-13T11:58:06.101Z,95249.44
2024-04-13T12:00:33.071Z,95266.16
2024-04-13T12:02:59.980Z,95262.69
2024-04-13T12:05:27.537Z,95264.28
2024-04-13T12:07:54.403Z,95263.75
2024-04-13T12:10:21.967Z,95259.47
2024-04-13T12:12:49.009Z,95243.47
2024-04-13T12:15:16.106Z,95265.28
2024-04-13T12:17:43.101Z,95257.41
2024-04-13T12:20:10.307Z,95249.97
2024-04-13T12:22:37.629Z,95236.81
2024-04-13T12:25:04.959Z,95240.69
2024-04-13T12:27:31.888Z,95242.22
2024-04-13T12:30:00.998Z,95234.47
2024-04-13T12:32:28.428Z,95222.63
2024-04-13T12:34:55.275Z,95227.41
2024-04-13T12:37:22.396Z,95222.72
2024-04-13T12:39:49.529Z,95201.16
2024-04-13T12:42:16.559Z,95221.03
2024-04-13T12:44:44.133Z,95213.13
2024-04-13T12:47:15.589Z,95205.63
2024-04-13T12:49:42.909Z,95204.16
2024-04-13T12:52:09.745Z,95205.34
2024-04-13T12:54:38.041Z,95198.78
2024-04-13T12:57:05.512Z,95195.25
2024-04-13T12:59:32.442Z,95198.25
2024-04-13T13:01:59.297Z,95198.22
2024-04-13T13:04:27.302Z,95187.44
2024-04-13T13:06:54.748Z,95189.00
2024-04-13T13:09:21.706Z,95189.69
2024-04-13T13:11:48.583Z,95188.44
2024-04-13T13:14:15.626Z,95176.25
2024-04-13T13:16:42.549Z,95170.69
2024-04-13T13:19:09.486Z,95171.69
2024-04-13T13:21:36.351Z,95172.16
2024-04-13T13:24:03.494Z,95165.09
2024-04-13T13:26:30.315Z,95163.69
2024-04-13T13:29:02.130Z,95157.97
2024-04-13T13:31:29.207Z,95152.59
2024-04-13T13:33:56.416Z,95150.94
2024-04-13T13:36:23.284Z,95135.38
2024-04-13T13:38:50.497Z,95150.84
2024-04-13T13:41:17.806Z,95139.16
2024-04-13T13:43:44.669Z,95125.03
2024-04-13T13:46:11.578Z,95129.34
2024-04-13T13:48:39.702Z,95124.19
2024-04-13T13:51:06.800Z,95115.66
2024-04-13T13:53:33.695Z,95118.00
2024-04-13T13:56:00.598Z,95121.44
2024-04-13T13:58:27.493Z,95117.41
2024-04-13T14:00:55.653Z,95114.59
2024-04-13T14:03:22.850Z,95120.47
2024-04-13T14:05:49.786Z,95111.97
2024-04-13T14:08:16.638Z,95103.28
2024-04-13T14:10:43.511Z,95111.84
2024-04-13T14:13:10.392Z,95104.84
2024-04-13T14:15:38.710Z,95109.88
2024-04-13T14:18:06.976Z,95103.94
2024-04-13T14:20:33.927Z,95092.03
2024-04-13T14:23:00.760Z,95093.06
2024-04-13T14:25:27.813Z,95089.06
2024-04-13T14:27:54.640Z,95090.72
2024-04-13T14:30:22.384Z,95079.19
2024-04-13T14:32:49.515Z,95083.81
2024-04-13T14:35:17.203Z,95072.50
2024-04-13T14:37:44.068Z,95065.19
2024-04-13T14:40:11.742Z,95076.97
2024-04-13T14:42:38.790Z,95064.44
2024-04-13T14:45:08.740Z,95065.19
2024-04-13T14:47:35.630Z,95054.22
2024-04-13T14:50:04.013Z,95053.44
2024-04-13T14:52:34.648Z,95043.63
2024-04-13T14:55:03.722Z,95051.34
2024-04-13T14:57:30.931Z,95049.81
2024-04-13T14:59:57.779Z,95041.19
2024-04-13T15:02:24.752Z,95042.34
2024-04-13T15:04:51.769Z,95041.78
2024-04-13T15:07:18.783Z,95045.00
2024-04-13T15:09:45.756Z,95038.75
2024-04-13T15:12:12.695Z,95039.53
2024-04-13T15:14:39.569Z,95044.28
2024-04-13T15:17:11.469Z,95034.13
2024-04-13T15:19:39.123Z,95028.97
2024-04-13T15:22:09.851Z,95027.00
2024-04-13T15:24:37.287Z,95023.88
2024-04-13T15:27:04.361Z,95030.50
2024-04-13T15:29:31.264Z,95021.53
2024-04-13T15:31:58.088Z,95017.22
2024-04-13T15:34:25.064Z,95021.94
2024-04-13T15:36:51.978Z,95016.91
2024-04-13T15:39:19.015Z,95012.22
2024-04-13T15:41:46.033Z,95011.91
2024-04-13T15:44:12.883Z,95012.28
2024-04-13T15:46:39.780Z,95005.59
2024-04-13T15:49:06.751Z,94996.56
2024-04-13T15:51:33.659Z,95001.28
2024-04-13T15:54:08.359Z,94993.09
2024-04-13T15:56:38.774Z,94987.19
2024-04-13T15:59:06.334Z,94989.94
2024-04-13T16:01:33.259Z,94977.41
2024-04-13T16:04:00.265Z,94987.25
2024-04-13T16:06:27.238Z,94981.75
2024-04-13T16:08:54.046Z,94981.00
2024-04-13T16:11:21.071Z,94983.38
2024-04-13T16:13:49.366Z,94986.09
2024-04-13T16:16:21.645Z,94981.41
2024-04-13T16:18:54.157Z,94975.94
2024-04-13T16:21:21.218Z,94974.03
2024-04-13T16:23:48.284Z,94974.03
2024-04-13T16:26:15.206Z,94980.28
2024-04-13T16:28:42.085Z,94982.66
2024-04-13T16:31:09.147Z,94978.72
2024-04-13T16:33:36.266Z,94978.34
2024-04-13T16:36:04.210Z,94969.34
2024-04-13T16:38:31.184Z,94980.28
2024-04-13T16:40:58.061Z,94977.19
2024-04-13T16:43:24.943Z,94960.78
2024-04-13T16:45:51.879Z,94964.69
2024-04-13T16:48:18.896Z,94963.50
2024-04-13T16:51:00.182Z,94961.16
2024-04-13T16:53:27.900Z,94965.47
2024-04-13T16:55:54.925Z,94958.03
2024-04-13T16:58:23.793Z,94954.13
2024-04-13T17:00:52.100Z,94961.16
2024-04-13T17:03:19.455Z,94953.72
2024-04-13T17:05:46.537Z,94949.44
2024-04-13T17:08:14.792Z,94950.59
2024-04-13T17:10:41.923Z,94948.66
2024-04-13T17:13:08.924Z,94946.31
2024-04-13T17:15:35.930Z,94944.34
2024-04-13T17:18:03.092Z,94931.06
2024-04-13T17:20:30.035Z,94945.94
2024-04-13T17:22:56.939Z,94943.56
2024-04-13T17:25:23.875Z,94940.03
2024-04-13T17:27:50.876Z,94943.53
2024-04-13T17:30:17.933Z,94942.75
2024-04-13T17:32:44.828Z,94938.06
2024-04-13T17:35:11.719Z,94940.78
2024-04-13T17:37:38.596Z,94938.44
2024-04-13T17:40:06.097Z,94946.63
2024-04-13T17:42:33.034Z,94938.00
2024-04-13T17:44:59.882Z,94930.59
2024-04-13T17:47:26.925Z,94930.19
2024-04-13T17:49:53.806Z,94934.06
2024-04-13T17:52:20.670Z,94937.19
2024-04-13T17:54:47.668Z,94934.78
2024-04-13T17:57:14.613Z,94940.19
2024-04-13T17:59:41.494Z,94933.09
2024-04-13T18:02:08.400Z,94947.03
2024-04-13T18:04:35.394Z,94942.22
2024-04-13T18:07:02.358Z,94944.09
2024-04-13T18:09:29.270Z,94943.19
2024-04-13T18:11:56.107Z,94951.59
2024-04-13T18:14:22.946Z,94941.00
2024-04-13T18:16:49.802Z,94941.75
2024-04-13T18:19:16.682Z,94933.91
2024-04-13T18:21:43.573Z,94946.38
2024-04-13T18:24:12.702Z,94944.75
2024-04-13T18:26:39.822Z,94936.19
2024-04-13T18:29:06.654Z,94930.63
2024-04-13T18:31:33.553Z,94929.44
2024-04-13T18:34:02.793Z,94925.56
2024-04-13T18:36:32.870Z,94933.69
2024-04-13T18:38:59.777Z,94929.81
2024-04-13T18:41:26.741Z,94927.06
2024-04-13T18:43:53.634Z,94921.19
2024-04-13T18:46:21.536Z,94926.19
2024-04-13T18:48:49.294Z,94937.78
2024-04-13T18:51:16.302Z,94939.34
2024-04-13T18:53:43.270Z,94937.41
2024-04-13T18:56:12.973Z,94934.66
2024-04-13T18:58:39.811Z,94950.59
2024-04-13T19:01:07.656Z,94940.34
2024-04-13T19:03:35.025Z,94937.59
2024-04-13T19:06:01.957Z,94941.88
2024-04-13T19:08:29.951Z,94942.97
2024-04-13T19:10:56.927Z,94942.94
2024-04-13T19:13:23.886Z,94950.31
2024-04-13T19:16:07.238Z,94955.78
2024-04-13T19:18:37.097Z,94950.66
2024-04-13T19:21:04.497Z,94940.00
2024-04-13T19:23:31.464Z,94958.31
2024-04-13T19:25:59.332Z,94955.53
2024-04-13T19:28:27.553Z,94957.44
2024-04-13T19:30:55.119Z,94952.28
2024-04-13T19:33:22.982Z,94956.03
2024-04-13T19:35:50.170Z,94957.44
2024-04-13T19:38:17.904Z,94956.50
2024-04-13T19:40:46.606Z,94962.16
2024-04-13T19:43:13.521Z,94956.91
2024-04-13T19:45:40.446Z,94956.41
2024-04-13T19:48:07.770Z,94955.53
2024-04-13T19:50:36.050Z,94962.00
2024-04-13T19:53:06.204Z,94954.88
2024-04-13T19:55:34.277Z,94957.91
2024-04-13T19:58:01.322Z,94950.09
2024-04-13T20:00:28.318Z,94956.22
2024-04-13T20:02:55.260Z,94953.31
2024-04-13T20:05:22.268Z,94953.94
2024-04-13T20:07:49.228Z,94962.72
2024-04-13T20:10:19.396Z,94956.31
2024-04-13T20:12:47.991Z,94970.13
2024-04-13T20:15:33.701Z,94970.06
2024-04-13T20:18:19.250Z,94962.38
2024-04-13T20:20:46.372Z,94968.56
2024-04-13T20:23:13.459Z,94968.91
2024-04-13T20:25:40.534Z,94966.53
2024-04-13T20:28:07.430Z,94968.56
2024-04-13T20:30:34.436Z,94952.28
2024-04-13T20:33:01.355Z,94950.38
2024-04-13T20:35:28.206Z,94947.50
2024-04-13T20:37:55.451Z,94950.28
2024-04-13T20:40:22.332Z,94942.16
2024-04-13T20:42:49.403Z,94943.81
2024-04-13T20:45:16.843Z,94945.38
2024-04-13T20:47:43.947Z,94948.88
2024-04-13T20:50:10.840Z,94945.38
2024-04-13T20:52:52.606Z,94934.81
2024-04-13T20:55:24.400Z,94930.44
2024-04-13T20:57:52.497Z,94929.13
2024-04-13T21:00:19.504Z,94931.50
2024-04-13T21:02:46.419Z,94919.78
2024-04-13T21:05:13.422Z,94909.31
2024-04-13T21:07:40.273Z,94901.00
2024-04-13T21:10:07.599Z,94915.25
2024-04-13T21:12:34.436Z,94905.84
2024-04-13T21:15:01.345Z,94900.00
2024-04-13T21:17:28.886Z,94903.06
2024-04-13T21:19:55.815Z,94899.75
2024-04-13T21:22:25.966Z,94913.56
2024-04-13T21:24:55.729Z,94911.91
2024-04-13T21:27:22.689Z,94900.72
2024-04-13T21:29:49.657Z,94908.16
2024-04-13T21:32:16.601Z,94906.75
2024-04-13T21:34:43.571Z,94904.06
2024-04-13T21:37:10.431Z,94903.19
2024-04-13T21:39:37.674Z,94905.19
2024-04-13T21:42:05.030Z,94907.88
2024-04-13T21:44:31.906Z,94900.47
2024-04-13T21:46:58.787Z,94904.31
2024-04-13T21:49:25.690Z,94897.66
2024-04-13T21:51:52.721Z,94895.50
2024-04-13T21:54:19.736Z,94889.63
2024-04-13T21:56:46.704Z,94883.09
2024-04-13T21:59:13.645Z,94870.69
2024-04-13T22:01:40.524Z,94881.94
2024-04-13T22:04:07.586Z,94865.38
2024-04-13T22:06:34.802Z,94865.72
2024-04-13T22:09:01.904Z,94884.47
2024-04-13T22:11:28.824Z,94876.00
2024-04-13T22:13:56.057Z,94877.34
2024-04-13T22:16:23.179Z,94871.16
2024-04-13T22:18:50.112Z,94885.63
2024-04-13T22:21:17.044Z,94880.13
2024-04-13T22:23:43.894Z,94868.06
2024-04-13T22:26:10.780Z,94885.09
2024-04-13T22:28:37.602Z,94883.66
2024-04-13T22:31:05.434Z,94886.69
2024-04-13T22:33:32.434Z,94879.78
2024-04-13T22:35:59.304Z,94888.47
2024-04-13T22:38:26.134Z,94890.28
2024-04-13T22:40:52.960Z,94889.31
2024-04-13T22:43:23.578Z,94881.34
2024-04-13T22:45:50.921Z,94873.38
2024-04-13T22:48:18.253Z,94880.44
2024-04-13T22:50:45.400Z,94880.31
2024-04-13T22:53:12.290Z,94879.63
2024-04-13T22:55:39.181Z,94877.63
2024-04-13T22:58:06.025Z,94869.19
2024-04-13T23:00:32.890Z,94864.22
2024-04-13T23:02:59.812Z,94865.22
2024-04-13T23:05:26.721Z,94872.75
2024-04-13T23:07:53.557Z,94860.78
2024-04-13T23:10:20.900Z,94871.91
2024-04-13T23:12:48.516Z,94860.31
2024-04-13T23:15:18.234Z,94865.22
2024-04-13T23:17:45.369Z,94867.31
2024-04-13T23:20:13.061Z,94861.91
2024-04-13T23:22:39.979Z,94869.06
2024-04-13T23:25:07.140Z,94871.78
2024-04-13T23:27:34.910Z,94859.75
2024-04-13T23:30:01.964Z,94867.59
2024-04-13T23:32:28.995Z,94853.78
2024-04-13T23:34:56.077Z,94871.34
2024-04-13T23:37:22.922Z,94862.25
2024-04-13T23:39:49.794Z,94865.97
2024-04-13T23:42:16.651Z,94854.91
2024-04-13T23:44:46.311Z,94857.84
2024-04-13T23:47:13.271Z,94845.97
2024-04-13T23:49:40.872Z,94845.72
2024-04-13T23:52:09.228Z,94849.38
2024-04-13T23:54:36.208Z,94835.34
2024-04-13T23:57:03.135Z,94848.69
2024-04-13T23:59:30.021Z,94849.84
